createdAt,value
2023-02-22T00:00:01.105Z,14.8
2023-02-22T00:01:01.108Z,14.8
2023-02-22T00:02:01.150Z,15
2023-02-22T00:03:01.279Z,15.1
2023-02-22T00:04:01.159Z,15
2023-02-22T00:05:01.449Z,15.1
2023-02-22T00:06:01.171Z,15.2
2023-02-22T00:07:01.148Z,15.3
2023-02-22T00:08:01.175Z,15.2
2023-02-22T00:09:01.181Z,14.6
2023-02-22T00:10:01.594Z,14.4
2023-02-22T00:11:00.972Z,14.4
2023-02-22T00:12:00.796Z,14.3
2023-02-22T00:13:00.804Z,14.5
2023-02-22T00:14:00.576Z,14.4
2023-02-22T00:15:00.265Z,14.6
2023-02-22T00:16:00.010Z,14.5
2023-02-22T00:17:00.068Z,14.7
2023-02-22T00:17:59.781Z,14.8
2023-02-22T00:19:01.415Z,15
2023-02-22T00:20:02.459Z,15.1
2023-02-22T00:21:01.142Z,15.3
2023-02-22T00:22:01.149Z,15.4
2023-02-22T00:23:01.157Z,15.2
2023-02-22T00:24:01.161Z,14.8
2023-02-22T00:25:01.152Z,14.5
2023-02-22T00:26:01.554Z,14.3
2023-02-22T00:27:01.741Z,14.4
2023-02-22T00:28:01.757Z,14.3
2023-02-22T00:29:01.747Z,13.9
2023-02-22T00:30:02.221Z,14.1
2023-02-22T00:31:01.493Z,13.7
2023-02-22T00:32:01.197Z,13.5
2023-02-22T00:33:01.126Z,13.4
2023-02-22T00:34:01.801Z,13.2
2023-02-22T00:35:01.285Z,13.5
2023-02-22T00:36:01.123Z,13.2
2023-02-22T00:37:01.130Z,13.5
2023-02-22T00:38:01.160Z,13.7
2023-02-22T00:39:01.161Z,13.9
2023-02-22T00:40:01.057Z,14.1
2023-02-22T00:41:01.156Z,14.4
2023-02-22T00:42:01.382Z,14.4
2023-02-22T00:43:01.396Z,14.4
2023-02-22T00:44:01.401Z,14.4
2023-02-22T00:45:01.212Z,14.1
2023-02-22T00:46:01.164Z,14.2
2023-02-22T00:47:01.067Z,14.2
2023-02-22T00:48:01.086Z,14.4
2023-02-22T00:49:01.056Z,14.5
2023-02-22T00:50:01.112Z,14.6
2023-02-22T00:51:01.521Z,14.8
2023-02-22T00:52:01.240Z,15
2023-02-22T00:53:01.261Z,15.1
2023-02-22T00:54:02.415Z,15.2
2023-02-22T00:55:02.063Z,15.4
2023-02-22T00:56:01.164Z,15.5
2023-02-22T00:57:01.154Z,15.7
2023-02-22T00:58:01.269Z,15.8
2023-02-22T00:59:01.837Z,16
2023-02-22T01:00:01.341Z,16.1
2023-02-22T01:01:02.060Z,16.2
2023-02-22T01:02:01.141Z,16.3
2023-02-22T01:03:01.122Z,16.4
2023-02-22T01:04:01.242Z,16.4
2023-02-22T01:05:01.789Z,16.4
2023-02-22T01:06:03.558Z,16.6
2023-02-22T01:07:01.110Z,16.8
2023-02-22T01:08:01.148Z,16.8
2023-02-22T01:09:01.348Z,17
2023-02-22T01:10:01.369Z,17.1
2023-02-22T01:11:06.877Z,17.2
2023-02-22T01:12:01.190Z,17.3
2023-02-22T01:13:01.351Z,17.4
2023-02-22T01:14:01.155Z,17.4
2023-02-22T01:15:01.081Z,17.4
2023-02-22T01:16:09.133Z,17.6
2023-02-22T01:17:01.137Z,17.6
2023-02-22T01:18:01.482Z,17.6
2023-02-22T01:19:01.484Z,17.6
2023-02-22T01:20:01.199Z,17.6
2023-02-22T01:21:12.809Z,17.6
2023-02-22T01:22:01.807Z,17.5
2023-02-22T01:23:01.801Z,17.6
2023-02-22T01:24:02.930Z,17.6
2023-02-22T01:25:01.524Z,17.6
2023-02-22T01:26:14.255Z,17.7
2023-02-22T01:27:02.015Z,17.8
2023-02-22T01:28:01.134Z,18
2023-02-22T01:29:01.048Z,18.1
2023-02-22T01:30:01.174Z,18.1
2023-02-22T01:31:17.108Z,18.2
2023-02-22T01:32:01.978Z,18.2
2023-02-22T01:33:01.136Z,18.4
2023-02-22T01:34:01.072Z,18.5
2023-02-22T01:35:01.084Z,18.4
2023-02-22T01:36:01.101Z,18.5
2023-02-22T01:37:01.101Z,18.4
2023-02-22T01:38:01.439Z,18.3
2023-02-22T01:39:01.487Z,18.4
2023-02-22T01:40:02.232Z,18.5
2023-02-22T01:41:01.144Z,18.5
2023-02-22T01:42:01.130Z,18.6
2023-02-22T01:43:01.154Z,18.7
2023-02-22T01:44:01.166Z,18.8
2023-02-22T01:45:01.148Z,18.9
2023-02-22T01:46:01.240Z,18.9
2023-02-22T01:47:01.150Z,19
2023-02-22T01:48:01.673Z,19.2
2023-02-22T01:49:01.073Z,19.1
2023-02-22T01:50:01.418Z,18.9
2023-02-22T01:51:01.096Z,18.8
2023-02-22T01:52:01.199Z,18.7
2023-02-22T01:53:01.092Z,18.5
2023-02-22T01:54:01.106Z,18.4
2023-02-22T01:55:01.100Z,18.2
2023-02-22T01:56:01.116Z,18.4
2023-02-22T01:57:01.502Z,18.1
2023-02-22T01:58:01.144Z,18.1
2023-02-22T01:59:01.837Z,18.1
2023-02-22T02:00:03.892Z,18.1
2023-02-22T02:01:01.513Z,18
2023-02-22T02:02:01.153Z,18.1
2023-02-22T02:03:01.160Z,18.1
2023-02-22T02:04:01.952Z,18.1
2023-02-22T02:05:02.068Z,18.1
2023-02-22T02:06:02.076Z,18.1
2023-02-22T02:07:01.090Z,18.1
2023-02-22T02:08:01.771Z,18.2
2023-02-22T02:09:01.095Z,18.2
2023-02-22T02:10:01.135Z,18.3
2023-02-22T02:11:01.121Z,18.5
2023-02-22T02:12:01.222Z,18.5
2023-02-22T02:13:01.950Z,18.2
2023-02-22T02:14:02.161Z,18.1
2023-02-22T02:15:01.253Z,18.1
2023-02-22T02:16:02.062Z,18.1
2023-02-22T02:17:02.578Z,18.2
2023-02-22T02:18:01.770Z,18.3
2023-02-22T02:19:01.378Z,18.5
2023-02-22T02:20:01.063Z,18.4
2023-02-22T02:21:01.785Z,18.5
2023-02-22T02:22:01.415Z,18.6
2023-02-22T02:23:01.447Z,18.7
2023-02-22T02:24:02.196Z,18.9
2023-02-22T02:25:02.178Z,19
2023-02-22T02:26:01.117Z,19
2023-02-22T02:27:01.548Z,19.1
2023-02-22T02:28:01.125Z,19.1
2023-02-22T02:29:01.118Z,19.1
2023-02-22T02:30:01.140Z,19.2
2023-02-22T02:31:01.182Z,19.2
2023-02-22T02:32:01.690Z,19.1
2023-02-22T02:33:01.275Z,19.1
2023-02-22T02:34:01.154Z,19.3
2023-02-22T02:35:01.164Z,19.4
2023-02-22T02:36:01.251Z,19.6
2023-02-22T02:37:01.625Z,19.6
2023-02-22T02:38:01.833Z,19.6
2023-02-22T02:39:01.789Z,19.8
2023-02-22T02:40:02.686Z,19.8
2023-02-22T02:41:01.821Z,19.9
2023-02-22T02:42:03.964Z,20
2023-02-22T02:43:02.470Z,20
2023-02-22T02:44:01.122Z,20
2023-02-22T02:45:01.045Z,20.1
2023-02-22T02:46:01.051Z,20.1
2023-02-22T02:47:01.185Z,20.1
2023-02-22T02:48:01.151Z,20.1
2023-02-22T02:49:01.792Z,20.1
2023-02-22T02:50:02.527Z,20.3
2023-02-22T02:51:01.442Z,20.4
2023-02-22T02:52:01.249Z,20.4
2023-02-22T02:53:01.972Z,20.5
2023-02-22T02:54:02.608Z,20.6
2023-02-22T02:55:01.082Z,20.7
2023-02-22T02:56:01.118Z,20.8
2023-02-22T02:57:04.682Z,20.8
2023-02-22T02:58:01.106Z,20.8
2023-02-22T02:59:01.123Z,20.9
2023-02-22T03:00:01.117Z,20.9
2023-02-22T03:01:01.120Z,21.1
2023-02-22T03:02:07.043Z,21.2
2023-02-22T03:03:01.139Z,21.2
2023-02-22T03:04:01.153Z,21.3
2023-02-22T03:05:01.136Z,21.4
2023-02-22T03:06:01.146Z,21.6
2023-02-22T03:07:10.252Z,21.7
2023-02-22T03:08:01.159Z,22
2023-02-22T03:09:01.872Z,22.1
2023-02-22T03:10:02.130Z,22.2
2023-02-22T03:11:01.198Z,22.4
2023-02-22T03:12:13.945Z,22.5
2023-02-22T03:13:04.749Z,22.8
2023-02-22T03:14:01.158Z,23.2
2023-02-22T03:15:01.860Z,23.3
2023-02-22T03:16:01.785Z,23.4
2023-02-22T03:17:15.989Z,23.3
2023-02-22T03:18:01.504Z,23.6
2023-02-22T03:19:01.134Z,23.6
2023-02-22T03:20:01.207Z,23.6
2023-02-22T03:21:01.141Z,23.6
2023-02-22T03:22:01.145Z,23.6
2023-02-22T03:23:01.481Z,23.6
2023-02-22T03:24:01.190Z,23.6
2023-02-22T03:25:01.197Z,23.7
2023-02-22T03:26:01.208Z,23.5
2023-02-22T03:27:01.212Z,23.5
2023-02-22T03:28:04.269Z,23.5
2023-02-22T03:29:01.907Z,23.6
2023-02-22T03:30:01.985Z,23.6
2023-02-22T03:31:01.139Z,23.6
2023-02-22T03:32:01.645Z,23.6
2023-02-22T03:33:01.122Z,23.6
2023-02-22T03:34:01.461Z,23.6
2023-02-22T03:35:01.184Z,23.5
2023-02-22T03:36:01.158Z,23.6
2023-02-22T03:37:01.150Z,24.1
2023-02-22T03:38:01.147Z,24.6
2023-02-22T03:39:01.154Z,24.9
2023-02-22T03:40:01.158Z,25.1
2023-02-22T03:41:01.172Z,25.2
2023-02-22T03:42:01.063Z,25.4
2023-02-22T03:43:01.079Z,25.5
2023-02-22T03:44:01.336Z,25.7
2023-02-22T03:45:01.417Z,25.8
2023-02-22T03:46:02.194Z,25.9
2023-02-22T03:47:01.069Z,26
2023-02-22T03:48:01.121Z,25.7
2023-02-22T03:49:01.133Z,25.6
2023-02-22T03:50:01.160Z,25.5
2023-02-22T03:51:01.156Z,25.4
2023-02-22T03:52:01.142Z,25.4
2023-02-22T03:53:01.530Z,25.4
2023-02-22T03:54:01.153Z,25.5
2023-02-22T03:55:01.154Z,25.5
2023-02-22T03:56:01.187Z,25.7
2023-02-22T03:57:01.234Z,25.8
2023-02-22T03:58:01.193Z,26
2023-02-22T03:59:01.143Z,26.2
2023-02-22T04:00:01.118Z,26.2
2023-02-22T04:01:01.078Z,26.2
2023-02-22T04:02:01.075Z,26.3
2023-02-22T04:03:01.187Z,26.5
2023-02-22T04:04:01.051Z,26.8
2023-02-22T04:05:01.990Z,26.9
2023-02-22T04:06:01.805Z,27
2023-02-22T04:07:01.125Z,27.1
2023-02-22T04:08:01.128Z,27.1
2023-02-22T04:09:01.147Z,27
2023-02-22T04:10:02.065Z,27
2023-02-22T04:11:00.890Z,27.1
2023-02-22T04:12:00.638Z,27.1
2023-02-22T04:13:00.359Z,27.1
2023-02-22T04:14:00.287Z,27.1
2023-02-22T04:14:59.939Z,27.1
2023-02-22T04:15:59.843Z,27.1
2023-02-22T04:16:59.637Z,27.1
2023-02-22T04:18:01.762Z,27.1
2023-02-22T04:19:02.425Z,27.1
2023-02-22T04:20:01.418Z,27.1
2023-02-22T04:21:02.120Z,27.1
2023-02-22T04:22:01.263Z,27.1
2023-02-22T04:23:01.124Z,27.3
2023-02-22T04:24:01.149Z,27.4
2023-02-22T04:25:01.059Z,27.7
2023-02-22T04:26:01.140Z,28
2023-02-22T04:27:01.178Z,28.3
2023-02-22T04:28:01.463Z,28.5
2023-02-22T04:29:01.246Z,28.7
2023-02-22T04:30:00.837Z,28.7
2023-02-22T04:31:01.500Z,29
2023-02-22T04:32:02.190Z,29.1
2023-02-22T04:33:02.656Z,28.9
2023-02-22T04:34:01.910Z,29.2
2023-02-22T04:35:01.687Z,29.3
2023-02-22T04:36:01.124Z,29.3
2023-02-22T04:37:01.055Z,29.2
2023-02-22T04:38:01.112Z,29.4
2023-02-22T04:39:01.145Z,29.4
2023-02-22T04:40:01.144Z,29.5
2023-02-22T04:41:01.161Z,29.5
2023-02-22T04:42:01.432Z,29.5
2023-02-22T04:43:07.760Z,29.5
2023-02-22T04:44:02.882Z,29.5
2023-02-22T04:45:01.372Z,29.5
2023-02-22T04:46:02.613Z,29.5
2023-02-22T04:47:01.464Z,29.6
2023-02-22T04:48:10.522Z,29.9
2023-02-22T04:49:02.688Z,30
2023-02-22T04:50:02.296Z,30.1
2023-02-22T04:51:01.862Z,30.2
2023-02-22T04:52:01.831Z,30.2
2023-02-22T04:53:14.290Z,30.3
2023-02-22T04:54:01.213Z,30.6
2023-02-22T04:55:01.179Z,30.8
2023-02-22T04:56:01.314Z,31
2023-02-22T04:57:01.519Z,31.2
2023-02-22T04:58:16.791Z,31.3
2023-02-22T04:59:01.152Z,31.4
2023-02-22T05:00:01.189Z,31.6
2023-02-22T05:01:01.198Z,31.7
2023-02-22T05:02:01.061Z,31.7
2023-02-22T05:03:01.163Z,31.9
2023-02-22T05:04:01.079Z,31.9
2023-02-22T05:05:01.121Z,32
2023-02-22T05:06:01.107Z,31.9
2023-02-22T05:07:01.589Z,31.8
2023-02-22T05:08:01.123Z,31.7
2023-02-22T05:09:01.142Z,31.7
2023-02-22T05:10:01.121Z,31.6
2023-02-22T05:11:01.138Z,31.8
2023-02-22T05:12:01.134Z,31.7
2023-02-22T05:13:02.694Z,31.7
2023-02-22T05:14:01.664Z,31.7
2023-02-22T05:15:01.074Z,31.6
2023-02-22T05:16:01.209Z,31.7
2023-02-22T05:17:01.167Z,31.6
2023-02-22T05:18:01.060Z,31.5
2023-02-22T05:19:01.174Z,31.6
2023-02-22T05:20:01.180Z,31.7
2023-02-22T05:21:01.466Z,31.8
2023-02-22T05:22:01.084Z,31.9
2023-02-22T05:23:01.095Z,32
2023-02-22T05:24:01.134Z,32.1
2023-02-22T05:25:01.095Z,32.1
2023-02-22T05:26:01.115Z,32.1
2023-02-22T05:27:03.899Z,32.1
2023-02-22T05:28:01.126Z,32.1
2023-02-22T05:29:01.139Z,32
2023-02-22T05:30:01.554Z,31.9
2023-02-22T05:31:01.193Z,31.8
2023-02-22T05:32:00.078Z,31.6
2023-02-22T05:32:59.814Z,31.7
2023-02-22T05:34:02.693Z,31.7
2023-02-22T05:35:02.980Z,31.7
2023-02-22T05:36:01.779Z,31.8
2023-02-22T05:37:01.079Z,31.7
2023-02-22T05:38:01.396Z,31.5
2023-02-22T05:39:01.117Z,31.5
2023-02-22T05:40:01.111Z,31.5
2023-02-22T05:41:01.121Z,31.5
2023-02-22T05:42:01.126Z,31.5
2023-02-22T05:43:01.456Z,31.6
2023-02-22T05:44:01.791Z,31.7
2023-02-22T05:45:01.127Z,31.8
2023-02-22T05:46:01.281Z,31.8
2023-02-22T05:47:02.629Z,31.8
2023-02-22T05:48:01.160Z,31.7
2023-02-22T05:49:01.431Z,31.5
2023-02-22T05:50:00.774Z,31.3
2023-02-22T05:51:00.477Z,31.2
2023-02-22T05:52:00.058Z,31.3
2023-02-22T05:52:59.755Z,31.3
2023-02-22T05:54:02.545Z,31.2
2023-02-22T05:55:01.519Z,31.3
2023-02-22T05:56:01.817Z,31.4
2023-02-22T05:57:01.354Z,31.3
2023-02-22T05:58:01.124Z,31.2
2023-02-22T05:59:01.456Z,31.2
2023-02-22T06:00:01.079Z,31.2
2023-02-22T06:01:15.079Z,31.4
2023-02-22T06:02:00.611Z,31.7
2023-02-22T06:03:00.316Z,31.7
2023-02-22T06:03:59.870Z,31.8
2023-02-22T06:05:02.877Z,31.7
2023-02-22T06:06:02.485Z,31.9
2023-02-22T06:07:01.066Z,32
2023-02-22T06:08:01.080Z,31.9
2023-02-22T06:09:01.113Z,32
2023-02-22T06:10:01.259Z,32
2023-02-22T06:11:01.089Z,32
2023-02-22T06:12:01.474Z,32
2023-02-22T06:13:01.099Z,32
2023-02-22T06:14:01.110Z,32
2023-02-22T06:15:01.122Z,32.1
2023-02-22T06:16:01.826Z,32.2
2023-02-22T06:17:01.984Z,32.2
2023-02-22T06:18:01.133Z,32.2
2023-02-22T06:19:00.888Z,32.3
2023-02-22T06:20:00.595Z,32.4
2023-02-22T06:21:00.229Z,32.7
2023-02-22T06:21:59.824Z,32.6
2023-02-22T06:23:01.886Z,32.5
2023-02-22T06:24:04.053Z,32.4
2023-02-22T06:25:01.680Z,32.7
2023-02-22T06:26:01.271Z,32.8
2023-02-22T06:27:01.911Z,32.9
2023-02-22T06:28:01.979Z,33.2
2023-02-22T06:29:06.318Z,33.5
2023-02-22T06:30:01.339Z,33.7
2023-02-22T06:31:02.345Z,33.8
2023-02-22T06:32:01.236Z,34
2023-02-22T06:33:01.121Z,34
2023-02-22T06:34:09.386Z,33.9
2023-02-22T06:35:01.143Z,33.9
2023-02-22T06:36:01.472Z,33.9
2023-02-22T06:37:02.255Z,34
2023-02-22T06:38:01.106Z,34.1
2023-02-22T06:39:13.893Z,34.1
2023-02-22T06:40:04.826Z,34
2023-02-22T06:41:01.092Z,34.2
2023-02-22T06:42:01.085Z,34.2
2023-02-22T06:43:01.104Z,34.1
2023-02-22T06:44:16.790Z,34.2
2023-02-22T06:45:00.815Z,34.4
2023-02-22T06:46:00.544Z,34.7
2023-02-22T06:47:00.204Z,35.1
2023-02-22T06:47:59.768Z,35.4
2023-02-22T06:49:01.592Z,35.4
2023-02-22T06:50:01.135Z,35.5
2023-02-22T06:51:01.131Z,35.4
2023-02-22T06:52:01.133Z,35.4
2023-02-22T06:53:01.484Z,35.4
2023-02-22T06:54:01.504Z,35.4
2023-02-22T06:55:02.913Z,35.4
2023-02-22T06:56:01.081Z,35.4
2023-02-22T06:57:01.099Z,35.4
2023-02-22T06:58:01.085Z,35.4
2023-02-22T06:59:02.710Z,35.4
2023-02-22T07:00:01.147Z,35.4
2023-02-22T07:01:01.575Z,35.4
2023-02-22T07:02:02.168Z,35.5
2023-02-22T07:03:01.181Z,35.5
2023-02-22T07:04:01.116Z,35.3
2023-02-22T07:05:00.827Z,35.4
2023-02-22T07:06:01.128Z,35.3
2023-02-22T07:07:01.140Z,35.4
2023-02-22T07:08:01.161Z,35.2
2023-02-22T07:09:01.060Z,35
2023-02-22T07:10:01.485Z,34.9
2023-02-22T07:11:01.189Z,34.7
2023-02-22T07:12:01.076Z,34.6
2023-02-22T07:13:01.086Z,34.5
2023-02-22T07:14:01.127Z,34.5
2023-02-22T07:15:01.103Z,34.5
2023-02-22T07:16:01.860Z,34.3
2023-02-22T07:17:01.403Z,34
2023-02-22T07:18:01.344Z,34
2023-02-22T07:19:01.355Z,34
2023-02-22T07:20:01.164Z,34
2023-02-22T07:21:02.670Z,34.1
2023-02-22T07:22:04.754Z,33.8
2023-02-22T07:23:01.435Z,33.6
2023-02-22T07:24:04.528Z,33.5
2023-02-22T07:25:01.784Z,33.5
2023-02-22T07:26:01.455Z,33.6
2023-02-22T07:27:01.174Z,33.8
2023-02-22T07:28:01.300Z,33.8
2023-02-22T07:29:01.134Z,33.7
2023-02-22T07:30:00.564Z,33.6
2023-02-22T07:31:00.263Z,33.8
2023-02-22T07:32:00.008Z,33.9
2023-02-22T07:32:59.824Z,33.8
2023-02-22T07:34:01.945Z,33.8
2023-02-22T07:35:02.110Z,34.1
2023-02-22T07:36:01.164Z,34.1
2023-02-22T07:37:01.115Z,34.1
2023-02-22T07:38:01.131Z,34
2023-02-22T07:39:01.146Z,33.8
2023-02-22T07:40:01.543Z,33.9
2023-02-22T07:41:01.110Z,34
2023-02-22T07:42:01.522Z,33.7
2023-02-22T07:43:01.300Z,33.5
2023-02-22T07:44:01.314Z,33.4
2023-02-22T07:45:02.181Z,33.4
2023-02-22T07:46:01.159Z,33.5
2023-02-22T07:47:01.353Z,33.5
2023-02-22T07:48:01.393Z,33.7
2023-02-22T07:49:01.567Z,33.6
2023-02-22T07:50:00.633Z,33.5
2023-02-22T07:51:00.201Z,33.5
2023-02-22T07:51:59.874Z,33.3
2023-02-22T07:52:59.498Z,33.2
2023-02-22T07:54:01.166Z,33.2
2023-02-22T07:55:02.154Z,33.2
2023-02-22T07:56:01.607Z,33
2023-02-22T07:57:01.575Z,32.9
2023-02-22T07:58:01.569Z,32.4
2023-02-22T07:59:01.697Z,32.5
2023-02-22T08:00:01.170Z,32.6
2023-02-22T08:01:02.656Z,32.6
2023-02-22T08:02:02.109Z,32.7
2023-02-22T08:03:01.793Z,32.7
2023-02-22T08:04:01.092Z,32.4
2023-02-22T08:05:01.704Z,32.2
2023-02-22T08:06:01.418Z,32.4
2023-02-22T08:07:02.041Z,32.5
2023-02-22T08:08:01.194Z,32.2
2023-02-22T08:09:01.128Z,32.2
2023-02-22T08:10:05.052Z,32.2
2023-02-22T08:11:01.161Z,32.2
2023-02-22T08:12:01.419Z,32.2
2023-02-22T08:13:01.446Z,31.6
2023-02-22T08:14:01.535Z,31.5
2023-02-22T08:15:07.700Z,31.8
2023-02-22T08:16:01.238Z,31.9
2023-02-22T08:17:01.025Z,31.7
2023-02-22T08:18:01.313Z,31.3
2023-02-22T08:19:01.522Z,31.2
2023-02-22T08:20:10.520Z,31.1
2023-02-22T08:21:01.247Z,31.2
2023-02-22T08:22:00.697Z,31
2023-02-22T08:23:00.426Z,31.1
2023-02-22T08:24:00.215Z,31
2023-02-22T08:25:12.558Z,31.2
2023-02-22T08:26:01.121Z,31.5
2023-02-22T08:27:01.207Z,31.5
2023-02-22T08:28:01.235Z,31.7
2023-02-22T08:29:01.138Z,31.6
2023-02-22T08:30:14.931Z,31.4
2023-02-22T08:31:01.231Z,30.9
2023-02-22T08:32:01.329Z,30.8
2023-02-22T08:33:01.407Z,30.7
2023-02-22T08:34:01.285Z,30.6
2023-02-22T08:35:17.185Z,30.8
2023-02-22T08:36:02.147Z,30.3
2023-02-22T08:37:01.119Z,30.3
2023-02-22T08:38:01.106Z,30.4
2023-02-22T08:39:01.184Z,29.8
2023-02-22T08:40:01.131Z,29.7
2023-02-22T08:41:01.146Z,29.4
2023-02-22T08:42:01.163Z,29.3
2023-02-22T08:43:01.157Z,29.4
2023-02-22T08:44:01.156Z,29.3
2023-02-22T08:45:01.167Z,28.9
2023-02-22T08:46:01.615Z,28.8
2023-02-22T08:47:01.263Z,29
2023-02-22T08:48:02.649Z,29.3
2023-02-22T08:49:02.133Z,29.1
2023-02-22T08:50:01.322Z,28.8
2023-02-22T08:51:01.088Z,28.7
2023-02-22T08:52:01.075Z,29
2023-02-22T08:53:01.213Z,28.8
2023-02-22T08:54:01.101Z,28.8
2023-02-22T08:55:01.113Z,28.3
2023-02-22T08:56:01.193Z,28
2023-02-22T08:57:01.593Z,27.6
2023-02-22T08:58:01.253Z,26.8
2023-02-22T08:59:01.156Z,26.6
2023-02-22T09:00:01.372Z,26.8
2023-02-22T09:01:01.171Z,26.5
2023-02-22T09:02:01.212Z,26.4
2023-02-22T09:03:01.240Z,26.1
2023-02-22T09:04:01.275Z,26
2023-02-22T09:05:00.959Z,26.2
2023-02-22T09:06:01.093Z,26
2023-02-22T09:07:01.070Z,25.3
2023-02-22T09:08:01.092Z,24.5
2023-02-22T09:09:01.095Z,24.8
2023-02-22T09:10:01.109Z,24.4
2023-02-22T09:11:01.503Z,24.4
2023-02-22T09:12:01.530Z,24.2
2023-02-22T09:13:02.057Z,24
2023-02-22T09:14:01.077Z,23.8
2023-02-22T09:15:01.170Z,23.5
2023-02-22T09:16:01.173Z,23.8
2023-02-22T09:17:03.984Z,23.7
2023-02-22T09:18:01.653Z,23.8
2023-02-22T09:19:01.673Z,23.4
2023-02-22T09:20:01.380Z,23.6
2023-02-22T09:21:01.055Z,23.4
2023-02-22T09:22:01.083Z,22.4
2023-02-22T09:23:01.074Z,21.2
2023-02-22T09:24:01.085Z,21.2
2023-02-22T09:25:11.197Z,20.8
2023-02-22T09:26:01.533Z,21
2023-02-22T09:27:01.485Z,21.3
2023-02-22T09:28:01.107Z,21.2
2023-02-22T09:29:01.112Z,20.9
2023-02-22T09:30:01.125Z,20.7
2023-02-22T09:31:01.134Z,20.1
2023-02-22T09:32:01.303Z,19.5
2023-02-22T09:33:01.351Z,19.3
2023-02-22T09:34:03.949Z,19.6
2023-02-22T09:35:02.513Z,19.6
2023-02-22T09:36:01.458Z,19.9
2023-02-22T09:37:02.089Z,20
2023-02-22T09:38:02.187Z,18.9
2023-02-22T09:39:01.078Z,19.1
2023-02-22T09:40:01.248Z,18.5
2023-02-22T09:41:01.092Z,18.6
2023-02-22T09:42:01.105Z,18.8
2023-02-22T09:43:01.109Z,18.3
2023-02-22T09:44:01.070Z,18.2
2023-02-22T09:45:00.803Z,18.3
2023-02-22T09:46:00.643Z,17.6
2023-02-22T09:47:00.308Z,17.5
2023-02-22T09:48:05.278Z,17.2
2023-02-22T09:49:02.990Z,16.7
2023-02-22T09:50:01.169Z,16.7
2023-02-22T09:51:01.318Z,17
2023-02-22T09:52:01.081Z,16.9
2023-02-22T09:53:01.065Z,16.8
2023-02-22T09:54:01.085Z,17
2023-02-22T09:55:01.178Z,16.6
2023-02-22T09:56:02.374Z,16.6
2023-02-22T09:57:01.740Z,16.4
2023-02-22T09:58:03.149Z,16.6
2023-02-22T09:59:01.492Z,16.7
2023-02-22T10:00:01.150Z,16.5
2023-02-22T10:01:02.085Z,16.5
2023-02-22T10:02:01.227Z,16.7
2023-02-22T10:03:01.927Z,16.3
2023-02-22T10:04:01.397Z,15.6
2023-02-22T10:05:00.655Z,15.7
2023-02-22T10:06:03.403Z,16
2023-02-22T10:07:01.159Z,16.2
2023-02-22T10:08:01.170Z,15.7
2023-02-22T10:09:01.059Z,15.6
2023-02-22T10:10:01.080Z,15.4
2023-02-22T10:11:05.197Z,15.2
2023-02-22T10:12:01.879Z,14.8
2023-02-22T10:13:01.911Z,14.7
2023-02-22T10:14:04.159Z,14
2023-02-22T10:15:01.049Z,14.4
2023-02-22T10:16:09.212Z,14.4
2023-02-22T10:17:01.919Z,14.4
2023-02-22T10:18:01.156Z,13.4
2023-02-22T10:19:01.136Z,13.4
2023-02-22T10:20:01.374Z,13.8
2023-02-22T10:21:12.372Z,14
2023-02-22T10:22:01.150Z,13.9
2023-02-22T10:23:01.163Z,13.4
2023-02-22T10:24:01.157Z,13.1
2023-02-22T10:25:00.857Z,13.1
2023-02-22T10:26:14.651Z,13.2
2023-02-22T10:27:01.074Z,13.3
2023-02-22T10:28:01.061Z,13.4
2023-02-22T10:29:01.459Z,13
2023-02-22T10:30:05.595Z,13.2
2023-02-22T10:31:01.396Z,13.4
2023-02-22T10:32:01.244Z,13.5
2023-02-22T10:33:02.021Z,12.4
2023-02-22T10:34:01.131Z,12.6
2023-02-22T10:35:01.130Z,12.9
2023-02-22T10:36:00.779Z,12.4
2023-02-22T10:37:00.693Z,12.6
2023-02-22T10:38:00.340Z,11.9
2023-02-22T10:39:00.015Z,10.5
2023-02-22T10:39:59.722Z,10.7
2023-02-22T10:41:01.356Z,10.7
2023-02-22T10:42:02.603Z,10.1
2023-02-22T10:43:01.982Z,9.9
2023-02-22T10:44:01.791Z,10.3
2023-02-22T10:45:00.670Z,10.5
2023-02-22T10:46:00.475Z,9.8
2023-02-22T10:47:00.064Z,10.2
2023-02-22T10:47:59.651Z,10.3
2023-02-22T10:49:01.312Z,9.8
2023-02-22T10:50:01.122Z,10.1
2023-02-22T10:51:01.131Z,10.2
2023-02-22T10:52:01.486Z,10.2
2023-02-22T10:53:01.140Z,10
2023-02-22T10:54:01.135Z,9.9
2023-02-22T10:55:14.168Z,10
2023-02-22T10:56:01.214Z,10.1
2023-02-22T10:57:01.271Z,10.2
2023-02-22T10:58:00.952Z,9.2
2023-02-22T10:59:00.661Z,9.1
2023-02-22T11:00:00.350Z,9.8
2023-02-22T11:01:00.189Z,9.8
2023-02-22T11:01:59.893Z,9.6
2023-02-22T11:02:59.555Z,9.5
2023-02-22T11:04:01.145Z,8.5
2023-02-22T11:05:00.990Z,7.2
2023-02-22T11:06:01.122Z,7.2
2023-02-22T11:07:01.518Z,6.5
2023-02-22T11:08:01.728Z,6.6
2023-02-22T11:09:01.117Z,7.1
2023-02-22T11:10:01.047Z,6.9
2023-02-22T11:11:01.163Z,6.9
2023-02-22T11:12:01.167Z,6.1
2023-02-22T11:13:01.166Z,6
2023-02-22T11:14:01.994Z,6.4
2023-02-22T11:15:01.882Z,6.7
2023-02-22T11:16:01.088Z,6.3
2023-02-22T11:17:01.174Z,6.6
2023-02-22T11:18:01.910Z,6.3
2023-02-22T11:19:01.114Z,6
2023-02-22T11:20:01.279Z,6.2
2023-02-22T11:21:01.062Z,6.1
2023-02-22T11:22:01.500Z,6.3
2023-02-22T11:23:00.847Z,6.6
2023-02-22T11:24:01.165Z,5.8
2023-02-22T11:25:00.639Z,5.1
2023-02-22T11:26:00.335Z,5.1
2023-02-22T11:27:00.654Z,5.1
2023-02-22T11:28:01.725Z,4.9
2023-02-22T11:29:01.265Z,5.1
2023-02-22T11:30:01.588Z,4.7
2023-02-22T11:31:02.756Z,4.5
2023-02-22T11:32:01.133Z,4.8
2023-02-22T11:33:01.101Z,4.5
2023-02-22T11:34:01.437Z,4
2023-02-22T11:35:09.060Z,4.1
2023-02-22T11:36:02.271Z,4.3
2023-02-22T11:37:01.115Z,4.4
2023-02-22T11:38:01.506Z,3.6
2023-02-22T11:39:01.145Z,3.3
2023-02-22T11:40:01.130Z,3.3
2023-02-22T11:41:01.047Z,3.3
2023-02-22T11:42:01.137Z,3.3
2023-02-22T11:43:01.140Z,3.8
2023-02-22T11:44:01.141Z,3.3
2023-02-22T11:45:01.508Z,4.8
2023-02-22T11:46:02.317Z,3.3
2023-02-22T11:47:02.052Z,3.4
2023-02-22T11:48:01.964Z,3.4
2023-02-22T11:49:01.088Z,3.4
2023-02-22T11:50:01.120Z,3.9
2023-02-22T11:51:01.125Z,3.4
2023-02-22T11:52:05.486Z,3.4
2023-02-22T11:53:01.925Z,3.6
2023-02-22T11:54:01.786Z,3.4
2023-02-22T11:55:01.124Z,3.4
2023-02-22T11:56:01.497Z,3.4
2023-02-22T11:57:10.149Z,4
2023-02-22T11:58:02.572Z,3.4
2023-02-22T11:59:01.144Z,3.4
2023-02-22T12:00:01.243Z,3.4
2023-02-22T12:01:01.985Z,3.2
2023-02-22T12:02:11.336Z,3.1
2023-02-22T12:03:02.149Z,3.4
2023-02-22T12:04:01.267Z,3
2023-02-22T12:05:01.413Z,3.4
2023-02-22T12:06:01.198Z,3.1
2023-02-22T12:07:14.306Z,2.9
2023-02-22T12:08:13.794Z,2.9
2023-02-22T12:09:02.039Z,2.7
2023-02-22T12:10:01.432Z,2.4
2023-02-22T12:11:00.831Z,3
2023-02-22T12:12:16.084Z,2.9
2023-02-22T12:13:01.912Z,3.3
2023-02-22T12:14:01.183Z,3
2023-02-22T12:15:01.053Z,2.6
2023-02-22T12:16:01.193Z,2.3
2023-02-22T12:17:01.172Z,2.7
2023-02-22T12:18:00.636Z,2.8
2023-02-22T12:19:00.367Z,3.4
2023-02-22T12:19:59.921Z,3.2
2023-02-22T12:20:59.556Z,3.4
2023-02-22T12:22:01.139Z,2.6
2023-02-22T12:23:01.070Z,2.2
2023-02-22T12:24:01.043Z,2.4
2023-02-22T12:25:09.523Z,2.5
2023-02-22T12:26:01.535Z,2.5
2023-02-22T12:27:01.131Z,2.5
2023-02-22T12:28:02.237Z,2.3
2023-02-22T12:29:02.349Z,2.5
2023-02-22T12:30:02.052Z,2.7
2023-02-22T12:31:02.117Z,2.6
2023-02-22T12:32:01.200Z,1.8
2023-02-22T12:33:00.796Z,1.9
2023-02-22T12:34:00.637Z,1.8
2023-02-22T12:35:00.338Z,2
2023-02-22T12:36:00.028Z,2.5
2023-02-22T12:36:59.651Z,2.6
2023-02-22T12:38:01.474Z,2.1
2023-02-22T12:39:01.136Z,2
2023-02-22T12:40:00.879Z,2.2
2023-02-22T12:41:01.116Z,1.9
2023-02-22T12:42:01.122Z,2.2
2023-02-22T12:43:01.124Z,3.5
2023-02-22T12:44:01.158Z,2.3
2023-02-22T12:45:01.138Z,2.2
2023-02-22T12:46:00.887Z,1.7
2023-02-22T12:47:01.155Z,1.3
2023-02-22T12:48:01.141Z,1.8
2023-02-22T12:49:01.259Z,1.5
2023-02-22T12:50:01.164Z,1.5
2023-02-22T12:51:01.058Z,1.6
2023-02-22T12:52:09.567Z,2.7
2023-02-22T12:53:01.198Z,2.4
2023-02-22T12:54:01.126Z,2.7
2023-02-22T12:55:01.089Z,1.5
2023-02-22T12:56:01.142Z,1.4
2023-02-22T12:57:01.613Z,1.7
2023-02-22T12:58:01.162Z,1.8
2023-02-22T12:59:01.540Z,1.5
2023-02-22T13:00:01.241Z,1.8
2023-02-22T13:01:02.027Z,2.4
2023-02-22T13:02:01.436Z,2.2
2023-02-22T13:03:01.084Z,2.4
2023-02-22T13:04:11.357Z,2.2
2023-02-22T13:05:01.198Z,1.9
2023-02-22T13:06:00.949Z,1.6
2023-02-22T13:07:01.182Z,1.8
2023-02-22T13:08:01.553Z,1.5
2023-02-22T13:09:03.873Z,1
2023-02-22T13:10:01.084Z,1
2023-02-22T13:11:01.081Z,1
2023-02-22T13:12:01.112Z,1
2023-02-22T13:13:01.092Z,1
2023-02-22T13:14:01.107Z,1
2023-02-22T13:15:01.118Z,1
2023-02-22T13:16:01.206Z,1
2023-02-22T13:17:01.168Z,1
2023-02-22T13:18:01.889Z,1.1
2023-02-22T13:19:01.214Z,1
2023-02-22T13:20:01.159Z,1
2023-02-22T13:21:01.150Z,1
2023-02-22T13:22:01.172Z,1.1
2023-02-22T13:23:01.160Z,1.2
2023-02-22T13:24:01.216Z,1
2023-02-22T13:25:01.071Z,1.1
2023-02-22T13:26:00.772Z,1
2023-02-22T13:27:00.408Z,1
2023-02-22T13:28:00.033Z,1
2023-02-22T13:28:59.668Z,1